Flood From: 19-02-2018 10:30 Until: 20-02-2018 06:00 warning for: Flood Level: Yellow info button

Although rather usual in this region, locally or potentially dangerous phenomena are expected. (such as local winds, summer thunderstorms, rising streams or high waves) Be aware and pay attention to the latest weather updates, especially if you carry out activities exposed to weather or close to a stream or shoreline. 


Meteo18 Weather Cam more information Meteo18 Weather Cam


Thunder radar more information blitzortung!


Rain radar more information rain snow radar


Visit our other weather sites:

Template documentation
and downloads

And another site



Weather Underground History page Text

Daily Summary for October 20, 2017 Units:  Both    English   Metric
« Previous Day
Next Day »
Daily Weekly Monthly Yearly Custom
  High: Low: Average:
Temperature: TemperatureC °F /  -17.8 °C 11.3 °F /  -11.5 °C 14 °F /  -10 °C
Dew Point: DewpointC °F /  -17.8 °C 9.6 °F /  -12.4 °C 11.3 °F /  -11.5 °C
Humidity: Humidity % 67 % 84 %
Wind Speed: WindSpeedKMH mph /  0 km/h - 7.6 mph /  12.2 km/h
Wind Gust: WindSpeedGustKMH mph /  0 km/h - -
Wind:- - SW
Pressure: PressurehPa in /  0 hPa 1011.4 in /  34246 hPa -
Precipitation: 0.3 in /  7.62 mm    
Historical Graphs
 
 
Tabular Data for October 20, 2017
Time Temperature Dew Point Pressure Wind Wind Speed Wind Gust Humidity Rainfall Rate (Hourly)
TemperatureC °F /  -17.8 °C DewpointC °F /  -17.8 °C PressurehPa in /  0 hPa Calm     Humidity % HourlyPrecipMM in /  0 mm
00:02 16.3 °F /  -8.7 °C 13.0 °F /  -10.6 °C 1011.7 in /  34256.2 hPa SSW 12.9 mph /  20.8 km/h 20.9 mph /  33.6 km/h 81 % 0.0 in /  0 mm
00:07 16.4 °F /  -8.7 °C 13.1 °F /  -10.5 °C 1011.7 in /  34256.2 hPa SSW 19.3 mph /  31.1 km/h 20.9 mph /  33.6 km/h 81 % 0.0 in /  0 mm
00:12 16.6 °F /  -8.6 °C 13.1 °F /  -10.5 °C 1011.7 in /  34256.2 hPa SSW 12.9 mph /  20.8 km/h 24.1 mph /  38.8 km/h 80 % 0.0 in /  0 mm
00:17 16.8 °F /  -8.4 °C 13.1 °F /  -10.5 °C 1011.7 in /  34256.2 hPa SSW 12.9 mph /  20.8 km/h 24.1 mph /  38.8 km/h 79 % 0.0 in /  0 mm
00:22 16.8 °F /  -8.4 °C 13.1 °F /  -10.5 °C 1011.7 in /  34256.2 hPa SSW 12.9 mph /  20.8 km/h 30.6 mph /  49.2 km/h 79 % 0.0 in /  0 mm
00:32 16.8 °F /  -8.4 °C 13.1 °F /  -10.5 °C 1011.7 in /  34256.2 hPa SSW 11.3 mph /  18.2 km/h 30.6 mph /  49.2 km/h 79 % 0.0 in /  0 mm
00:42 16.8 °F /  -8.4 °C 12.9 °F /  -10.6 °C 1011.7 in /  34256.2 hPa SW 27.4 mph /  44.1 km/h 32.2 mph /  51.8 km/h 78 % 0.0 in /  0 mm
00:47 16.8 °F /  -8.4 °C 13.1 °F /  -10.5 °C 1011.4 in /  34246 hPa SSW 19.3 mph /  31.1 km/h 32.2 mph /  51.8 km/h 79 % 0.0 in /  0 mm
00:52 16.7 °F /  -8.5 °C 13.0 °F /  -10.6 °C 1011.4 in /  34246 hPa SW 25.7 mph /  41.4 km/h 30.6 mph /  49.2 km/h 79 % 0.0 in /  0 mm
00:57 16.7 °F /  -8.5 °C 13.0 °F /  -10.6 °C 1011.4 in /  34246 hPa SSW 17.7 mph /  28.5 km/h 30.6 mph /  49.2 km/h 79 % 0.0 in /  0 mm
01:02 16.6 °F /  -8.6 °C 12.9 °F /  -10.6 °C 1011.4 in /  34246 hPa SSW 12.9 mph /  20.8 km/h 30.6 mph /  49.2 km/h 79 % 0.0 in /  0 mm
01:07 16.4 °F /  -8.7 °C 12.7 °F /  -10.7 °C 1011.4 in /  34246 hPa SSW 11.3 mph /  18.2 km/h 30.6 mph /  49.2 km/h 79 % 0.0 in /  0 mm
01:12 16.3 °F /  -8.7 °C 12.8 °F /  -10.7 °C 1011.4 in /  34246 hPa SSW 12.9 mph /  20.8 km/h 25.7 mph /  41.4 km/h 80 % 0.0 in /  0 mm
01:17 16.3 °F /  -8.7 °C 12.8 °F /  -10.7 °C 1011.4 in /  34246 hPa SSW 9.7 mph /  15.6 km/h 25.7 mph /  41.4 km/h 80 % 0.0 in /  0 mm
01:22 16.3 °F /  -8.7 °C 12.7 °F /  -10.7 °C 1011.4 in /  34246 hPa SW 14.5 mph /  23.3 km/h 25.7 mph /  41.4 km/h 79 % 0.0 in /  0 mm
01:27 16.2 °F /  -8.8 °C 12.6 °F /  -10.8 °C 1011.4 in /  34246 hPa SSW 17.7 mph /  28.5 km/h 24.1 mph /  38.8 km/h 79 % 0.0 in /  0 mm
01:32 16.1 °F /  -8.8 °C 12.5 °F /  -10.8 °C 1011.4 in /  34246 hPa SW 11.3 mph /  18.2 km/h 22.5 mph /  36.2 km/h 79 % 0.0 in /  0 mm
01:37 16.0 °F /  -8.9 °C 12.6 °F /  -10.8 °C 1011.7 in /  34256.2 hPa SW 16.1 mph /  25.9 km/h 20.9 mph /  33.6 km/h 80 % 0.0 in /  0 mm
01:47 16.1 °F /  -8.8 °C 12.5 °F /  -10.8 °C 1011.4 in /  34246 hPa South 17.7 mph /  28.5 km/h 24.1 mph /  38.8 km/h 79 % 0.0 in /  0 mm
01:52 16.1 °F /  -8.8 °C 12.5 °F /  -10.8 °C 1011.4 in /  34246 hPa SSE 14.5 mph /  23.3 km/h 24.1 mph /  38.8 km/h 79 % 0.0 in /  0 mm
02:02 16.1 °F /  -8.8 °C 12.5 °F /  -10.8 °C 1011.7 in /  34256.2 hPa SW 12.9 mph /  20.8 km/h 22.5 mph /  36.2 km/h 79 % 0.0 in /  0 mm
02:07 15.9 °F /  -8.9 °C 12.5 °F /  -10.8 °C 1011.7 in /  34256.2 hPa SW 8.0 mph /  12.9 km/h 22.5 mph /  36.2 km/h 80 % 0.0 in /  0 mm
02:12 15.7 °F /  -9.1 °C 12.4 °F /  -10.9 °C 1011.7 in /  34256.2 hPa WSW 11.3 mph /  18.2 km/h 22.5 mph /  36.2 km/h 81 % 0.0 in /  0 mm
02:17 15.7 °F /  -9.1 °C 12.4 °F /  -10.9 °C 1011.7 in /  34256.2 hPa SW 11.3 mph /  18.2 km/h 20.9 mph /  33.6 km/h 81 % 0.0 in /  0 mm
02:22 15.5 °F /  -9.2 °C 12.3 °F /  -10.9 °C 1012.1 in /  34269.7 hPa SW 14.5 mph /  23.3 km/h 20.9 mph /  33.6 km/h 81 % 0.0 in /  0 mm
02:32 15.3 °F /  -9.3 °C 12.2 °F /  -11 °C 1012.1 in /  34269.7 hPa SW 9.7 mph /  15.6 km/h 22.5 mph /  36.2 km/h 82 % 0.0 in /  0 mm
02:37 15.2 °F /  -9.3 °C 12.3 °F /  -10.9 °C 1012.1 in /  34269.7 hPa SW 11.3 mph /  18.2 km/h 22.5 mph /  36.2 km/h 83 % 0.0 in /  0 mm
02:42 14.9 °F /  -9.5 °C 12.2 °F /  -11 °C 1012.1 in /  34269.7 hPa SW 14.5 mph /  23.3 km/h 20.9 mph /  33.6 km/h 84 % 0.0 in /  0 mm
02:52 14.6 °F /  -9.7 °C 12.1 °F /  -11.1 °C 1012.1 in /  34269.7 hPa SSW 8.0 mph /  12.9 km/h 20.9 mph /  33.6 km/h 85 % 0.0 in /  0 mm
02:57 14.4 °F /  -9.8 °C 11.9 °F /  -11.2 °C 1012.1 in /  34269.7 hPa SSW 11.3 mph /  18.2 km/h 20.9 mph /  33.6 km/h 85 % 0.0 in /  0 mm
03:02 14.3 °F /  -9.8 °C 11.8 °F /  -11.2 °C 1012.1 in /  34269.7 hPa SW 8.0 mph /  12.9 km/h 19.3 mph /  31.1 km/h 85 % 0.0 in /  0 mm
03:07 14.1 °F /  -9.9 °C 11.8 °F /  -11.2 °C 1012.4 in /  34279.9 hPa SW 4.8 mph /  7.7 km/h 16.1 mph /  25.9 km/h 86 % 0.0 in /  0 mm
03:12 14.1 °F /  -9.9 °C 12.0 °F /  -11.1 °C 1012.4 in /  34279.9 hPa SW 8.0 mph /  12.9 km/h 14.5 mph /  23.3 km/h 87 % 0.0 in /  0 mm
03:17 14.0 °F /  -10 °C 11.9 °F /  -11.2 °C 1012.8 in /  34293.4 hPa SW 9.7 mph /  15.6 km/h 14.5 mph /  23.3 km/h 87 % 0.0 in /  0 mm
03:22 13.8 °F /  -10.1 °C 11.7 °F /  -11.3 °C 1012.4 in /  34279.9 hPa SSW 6.4 mph /  10.3 km/h 12.9 mph /  20.8 km/h 87 % 0.0 in /  0 mm
03:32 13.4 °F /  -10.3 °C 11.5 °F /  -11.4 °C 1012.8 in /  34293.4 hPa SW 4.8 mph /  7.7 km/h 12.9 mph /  20.8 km/h 88 % 0.0 in /  0 mm
03:37 13.4 °F /  -10.3 °C 11.5 °F /  -11.4 °C 1012.8 in /  34293.4 hPa SSW 6.4 mph /  10.3 km/h 9.7 mph /  15.6 km/h 88 % 0.0 in /  0 mm
03:42 13.3 °F /  -10.4 °C 11.5 °F /  -11.4 °C 1012.8 in /  34293.4 hPa SW 6.4 mph /  10.3 km/h 12.9 mph /  20.8 km/h 89 % 0.0 in /  0 mm
03:47 13.2 °F /  -10.4 °C 11.4 °F /  -11.4 °C 1012.8 in /  34293.4 hPa SW 4.8 mph /  7.7 km/h 12.9 mph /  20.8 km/h 89 % 0.0 in /  0 mm
03:52 13.0 °F /  -10.6 °C 11.2 °F /  -11.6 °C 1012.8 in /  34293.4 hPa SW 6.4 mph /  10.3 km/h 12.9 mph /  20.8 km/h 89 % 0.0 in /  0 mm
03:57 13.0 °F /  -10.6 °C 11.4 °F /  -11.4 °C 1012.8 in /  34293.4 hPa SW 6.4 mph /  10.3 km/h 9.7 mph /  15.6 km/h 90 % 0.0 in /  0 mm
04:02 13.0 °F /  -10.6 °C 11.4 °F /  -11.4 °C 1012.8 in /  34293.4 hPa SW 4.8 mph /  7.7 km/h 9.7 mph /  15.6 km/h 90 % 0.0 in /  0 mm
04:07 13.0 °F /  -10.6 °C 11.4 °F /  -11.4 °C 1012.8 in /  34293.4 hPa SW 9.7 mph /  15.6 km/h 9.7 mph /  15.6 km/h 90 % 0.0 in /  0 mm
04:12 13.0 °F /  -10.6 °C 11.2 °F /  -11.6 °C 1012.8 in /  34293.4 hPa SSW 4.8 mph /  7.7 km/h 11.3 mph /  18.2 km/h 89 % 0.0 in /  0 mm
04:17 13.0 °F /  -10.6 °C 11.4 °F /  -11.4 °C 1012.8 in /  34293.4 hPa SW 4.8 mph /  7.7 km/h 11.3 mph /  18.2 km/h 90 % 0.0 in /  0 mm
04:22 13.1 °F /  -10.5 °C 11.5 °F /  -11.4 °C 1012.8 in /  34293.4 hPa SSW 4.8 mph /  7.7 km/h 11.3 mph /  18.2 km/h 90 % 0.0 in /  0 mm
04:27 12.9 °F /  -10.6 °C 11.3 °F /  -11.5 °C 1012.8 in /  34293.4 hPa SW 4.8 mph /  7.7 km/h 9.7 mph /  15.6 km/h 90 % 0.0 in /  0 mm
04:32 12.7 °F /  -10.7 °C 11.1 °F /  -11.6 °C 1012.8 in /  34293.4 hPa SW 4.8 mph /  7.7 km/h 8.0 mph /  12.9 km/h 90 % 0.0 in /  0 mm
04:42 12.8 °F /  -10.7 °C 11.4 °F /  -11.4 °C 1013.1 in /  34303.6 hPa SW 6.4 mph /  10.3 km/h 9.7 mph /  15.6 km/h 91 % 0.0 in /  0 mm
04:47 12.9 °F /  -10.6 °C 11.3 °F /  -11.5 °C 1012.8 in /  34293.4 hPa SSW 6.4 mph /  10.3 km/h 14.5 mph /  23.3 km/h 90 % 0.0 in /  0 mm
04:52 13.2 °F /  -10.4 °C 11.4 °F /  -11.4 °C 1012.8 in /  34293.4 hPa SW 11.3 mph /  18.2 km/h 14.5 mph /  23.3 km/h 89 % 0.0 in /  0 mm
04:57 13.7 °F /  -10.2 °C 11.7 °F /  -11.3 °C 1012.8 in /  34293.4 hPa SSW 11.3 mph /  18.2 km/h 14.5 mph /  23.3 km/h 88 % 0.0 in /  0 mm
05:02 14.8 °F /  -9.6 °C 11.9 °F /  -11.2 °C 1013.1 in /  34303.6 hPa SW 19.3 mph /  31.1 km/h 19.3 mph /  31.1 km/h 83 % 0.0 in /  0 mm
05:07 15.5 °F /  -9.2 °C 12.3 °F /  -10.9 °C 1012.8 in /  34293.4 hPa WSW 29.0 mph /  46.7 km/h 40.2 mph /  64.7 km/h 81 % 0.0 in /  0 mm
05:17 15.2 °F /  -9.3 °C 12.3 °F /  -10.9 °C 1012.8 in /  34293.4 hPa SW 27.4 mph /  44.1 km/h 41.8 mph /  67.3 km/h 83 % 0.0 in /  0 mm
05:22 15.1 °F /  -9.4 °C 12.4 °F /  -10.9 °C 1012.8 in /  34293.4 hPa SW 12.9 mph /  20.8 km/h 41.8 mph /  67.3 km/h 84 % 0.0 in /  0 mm
05:27 15.1 °F /  -9.4 °C 12.4 °F /  -10.9 °C 1012.8 in /  34293.4 hPa SW 14.5 mph /  23.3 km/h 33.8 mph /  54.4 km/h 84 % 0.0 in /  0 mm
05:32 15.0 °F /  -9.4 °C 12.3 °F /  -10.9 °C 1012.8 in /  34293.4 hPa SW 9.7 mph /  15.6 km/h 33.8 mph /  54.4 km/h 84 % 0.0 in /  0 mm
05:37 14.9 °F /  -9.5 °C 12.2 °F /  -11 °C 1012.8 in /  34293.4 hPa SW 16.1 mph /  25.9 km/h 33.8 mph /  54.4 km/h 84 % 0.0 in /  0 mm
05:47 15.0 °F /  -9.4 °C 12.3 °F /  -10.9 °C 1012.8 in /  34293.4 hPa SW 11.3 mph /  18.2 km/h 20.9 mph /  33.6 km/h 84 % 0.0 in /  0 mm
05:52 15.1 °F /  -9.4 °C 12.2 °F /  -11 °C 1012.8 in /  34293.4 hPa SW 17.7 mph /  28.5 km/h 20.9 mph /  33.6 km/h 83 % 0.0 in /  0 mm
06:02 15.1 °F /  -9.4 °C 12.4 °F /  -10.9 °C 1013.1 in /  34303.6 hPa SW 16.1 mph /  25.9 km/h 29.0 mph /  46.7 km/h 84 % 0.0 in /  0 mm
06:12 15.0 °F /  -9.4 °C 12.5 °F /  -10.8 °C 1013.1 in /  34303.6 hPa West 19.3 mph /  31.1 km/h 29.0 mph /  46.7 km/h 85 % 0.0 in /  0 mm
06:17 14.8 °F /  -9.6 °C 12.7 °F /  -10.7 °C 1013.1 in /  34303.6 hPa SW 4.8 mph /  7.7 km/h 35.4 mph /  57 km/h 87 % 0.0 in /  0 mm
06:22 14.6 °F /  -9.7 °C 12.5 °F /  -10.8 °C 1013.4 in /  34313.7 hPa WSW 14.5 mph /  23.3 km/h 35.4 mph /  57 km/h 87 % 0.0 in /  0 mm
06:32 14.3 °F /  -9.8 °C 12.5 °F /  -10.8 °C 1013.4 in /  34313.7 hPa WSW 20.9 mph /  33.6 km/h 25.7 mph /  41.4 km/h 89 % 0.0 in /  0 mm
06:42 14.1 °F /  -9.9 °C 12.7 °F /  -10.7 °C 1013.4 in /  34313.7 hPa SSW 6.4 mph /  10.3 km/h 24.1 mph /  38.8 km/h 91 % 0.0 in /  0 mm
06:52 13.9 °F /  -10.1 °C 12.6 °F /  -10.8 °C 1013.8 in /  34327.3 hPa SW 4.8 mph /  7.7 km/h 24.1 mph /  38.8 km/h 92 % 0.0 in /  0 mm
06:57 13.7 °F /  -10.2 °C 12.6 °F /  -10.8 °C 1013.8 in /  34327.3 hPa West 9.7 mph /  15.6 km/h 25.7 mph /  41.4 km/h 93 % 0.0 in /  0 mm
07:02 13.3 °F /  -10.4 °C 11.9 °F /  -11.2 °C 1014.1 in /  34337.4 hPa West 19.3 mph /  31.1 km/h 25.7 mph /  41.4 km/h 91 % 0.0 in /  0 mm
07:07 12.8 °F /  -10.7 °C 11.4 °F /  -11.4 °C 1014.1 in /  34337.4 hPa NW 6.4 mph /  10.3 km/h 22.5 mph /  36.2 km/h 91 % 0.0 in /  0 mm
07:12 12.5 °F /  -10.8 °C 11.1 °F /  -11.6 °C 1014.1 in /  34337.4 hPa West 12.9 mph /  20.8 km/h 22.5 mph /  36.2 km/h 91 % 0.0 in /  0 mm
07:17 12.3 °F /  -10.9 °C 11.0 °F /  -11.7 °C 1014.1 in /  34337.4 hPa West 11.3 mph /  18.2 km/h 25.7 mph /  41.4 km/h 92 % 0.3 in /  7.62 mm
07:22 12.2 °F /  -11 °C 10.9 °F /  -11.7 °C 1014.4 in /  34347.6 hPa West 8.0 mph /  12.9 km/h 25.7 mph /  41.4 km/h 92 % 0.3 in /  7.62 mm
07:32 12.0 °F /  -11.1 °C 10.9 °F /  -11.7 °C 1014.4 in /  34347.6 hPa WNW 3.2 mph /  5.1 km/h 22.5 mph /  36.2 km/h 93 % 0.3 in /  7.62 mm
07:42 11.8 °F /  -11.2 °C 10.7 °F /  -11.8 °C 1014.4 in /  34347.6 hPa WSW 6.4 mph /  10.3 km/h 16.1 mph /  25.9 km/h 93 % 0.3 in /  7.62 mm
07:52 11.7 °F /  -11.3 °C 10.4 °F /  -12 °C 1014.4 in /  34347.6 hPa SW 6.4 mph /  10.3 km/h 16.1 mph /  25.9 km/h 92 % 0.3 in /  7.62 mm
08:02 11.6 °F /  -11.3 °C 10.3 °F /  -12.1 °C 1014.8 in /  34361.1 hPa SW 3.2 mph /  5.1 km/h 16.1 mph /  25.9 km/h 92 % 0.3 in /  7.62 mm
08:12 11.6 °F /  -11.3 °C 10.3 °F /  -12.1 °C 1015.1 in /  34371.3 hPa SW 6.4 mph /  10.3 km/h 14.5 mph /  23.3 km/h 92 % 0.3 in /  7.62 mm
08:17 11.6 °F /  -11.3 °C 10.5 °F /  -11.9 °C 1015.1 in /  34371.3 hPa West 11.3 mph /  18.2 km/h 17.7 mph /  28.5 km/h 93 % 0.0 in /  0 mm
08:22 11.6 °F /  -11.3 °C 10.5 °F /  -11.9 °C 1015.1 in /  34371.3 hPa WSW 4.8 mph /  7.7 km/h 17.7 mph /  28.5 km/h 93 % 0.0 in /  0 mm
08:32 11.6 °F /  -11.3 °C 10.5 °F /  -11.9 °C 1015.5 in /  34384.8 hPa SSW 8.0 mph /  12.9 km/h 16.1 mph /  25.9 km/h 93 % 0.0 in /  0 mm
08:42 11.6 °F /  -11.3 °C 10.5 °F /  -11.9 °C 1015.5 in /  34384.8 hPa SW 3.2 mph /  5.1 km/h 16.1 mph /  25.9 km/h 93 % 0.0 in /  0 mm
08:47 11.6 °F /  -11.3 °C 10.5 °F /  -11.9 °C 1015.5 in /  34384.8 hPa SW 1.6 mph /  2.6 km/h 11.3 mph /  18.2 km/h 93 % 0.0 in /  0 mm
08:52 11.7 °F /  -11.3 °C 10.6 °F /  -11.9 °C 1015.8 in /  34395 hPa West 1.6 mph /  2.6 km/h 11.3 mph /  18.2 km/h 93 % 0.0 in /  0 mm
09:02 11.7 °F /  -11.3 °C 10.6 °F /  -11.9 °C 1015.8 in /  34395 hPa WSW 6.4 mph /  10.3 km/h 11.3 mph /  18.2 km/h 93 % 0.0 in /  0 mm
09:12 11.8 °F /  -11.2 °C 10.7 °F /  -11.8 °C 1016.1 in /  34405.1 hPa WSW 3.2 mph /  5.1 km/h 9.7 mph /  15.6 km/h 93 % 0.0 in /  0 mm
09:17 11.8 °F /  -11.2 °C 10.7 °F /  -11.8 °C 1016.1 in /  34405.1 hPa SW 4.8 mph /  7.7 km/h 9.7 mph /  15.6 km/h 93 % 0.0 in /  0 mm
09:22 11.9 °F /  -11.2 °C 11.0 °F /  -11.7 °C 1016.5 in /  34418.7 hPa WSW 1.6 mph /  2.6 km/h 9.7 mph /  15.6 km/h 94 % 0.0 in /  0 mm
09:32 12.0 °F /  -11.1 °C 11.1 °F /  -11.6 °C 1016.5 in /  34418.7 hPa SW 4.8 mph /  7.7 km/h 11.3 mph /  18.2 km/h 94 % 0.0 in /  0 mm
09:42 12.1 °F /  -11.1 °C 11.2 °F /  -11.6 °C 1016.5 in /  34418.7 hPa WSW 3.2 mph /  5.1 km/h 8.0 mph /  12.9 km/h 94 % 0.0 in /  0 mm
09:52 12.2 °F /  -11 °C 11.1 °F /  -11.6 °C 1016.8 in /  34428.8 hPa WSW 3.2 mph /  5.1 km/h 9.7 mph /  15.6 km/h 93 % 0.0 in /  0 mm
10:02 12.4 °F /  -10.9 °C 11.3 °F /  -11.5 °C 1016.8 in /  34428.8 hPa WSW 3.2 mph /  5.1 km/h 9.7 mph /  15.6 km/h 93 % 0.0 in /  0 mm
10:12 12.5 °F /  -10.8 °C 11.4 °F /  -11.4 °C 1016.8 in /  34428.8 hPa SW 4.8 mph /  7.7 km/h 9.7 mph /  15.6 km/h 93 % 0.0 in /  0 mm
10:17 12.6 °F /  -10.8 °C 11.3 °F /  -11.5 °C 1017.2 in /  34442.4 hPa WSW 6.4 mph /  10.3 km/h 14.5 mph /  23.3 km/h 92 % 0.0 in /  0 mm
10:22 12.7 °F /  -10.7 °C 11.4 °F /  -11.4 °C 1017.2 in /  34442.4 hPa WSW 4.8 mph /  7.7 km/h 14.5 mph /  23.3 km/h 92 % 0.0 in /  0 mm
10:32 13.0 °F /  -10.6 °C 11.6 °F /  -11.3 °C 1017.2 in /  34442.4 hPa WSW 8.0 mph /  12.9 km/h 14.5 mph /  23.3 km/h 91 % 0.0 in /  0 mm
10:37 13.0 °F /  -10.6 °C 11.4 °F /  -11.4 °C 1017.2 in /  34442.4 hPa WSW 8.0 mph /  12.9 km/h 9.7 mph /  15.6 km/h 90 % 0.0 in /  0 mm
10:42 13.1 °F /  -10.5 °C 11.5 °F /  -11.4 °C 1017.2 in /  34442.4 hPa WSW 6.4 mph /  10.3 km/h 9.7 mph /  15.6 km/h 90 % 0.0 in /  0 mm
10:47 13.2 °F /  -10.4 °C 11.6 °F /  -11.3 °C 1017.5 in /  34452.6 hPa WSW 4.8 mph /  7.7 km/h 11.3 mph /  18.2 km/h 90 % 0.0 in /  0 mm
10:52 13.2 °F /  -10.4 °C 11.4 °F /  -11.4 °C 1017.5 in /  34452.6 hPa SSW 9.7 mph /  15.6 km/h 11.3 mph /  18.2 km/h 89 % 0.0 in /  0 mm
11:02 13.3 °F /  -10.4 °C 11.5 °F /  -11.4 °C 1017.5 in /  34452.6 hPa WSW 4.8 mph /  7.7 km/h 12.9 mph /  20.8 km/h 89 % 0.0 in /  0 mm
11:12 13.4 °F /  -10.3 °C 11.5 °F /  -11.4 °C 1017.5 in /  34452.6 hPa SW 3.2 mph /  5.1 km/h 12.9 mph /  20.8 km/h 88 % 0.0 in /  0 mm
11:17 13.7 °F /  -10.2 °C 11.7 °F /  -11.3 °C 1017.5 in /  34452.6 hPa SSW 4.8 mph /  7.7 km/h 11.3 mph /  18.2 km/h 88 % 0.0 in /  0 mm
11:22 13.7 °F /  -10.2 °C 11.0 °F /  -11.7 °C 1017.8 in /  34462.7 hPa WSW 8.0 mph /  12.9 km/h 11.3 mph /  18.2 km/h 84 % 0.0 in /  0 mm
11:32 13.7 °F /  -10.2 °C 11.4 °F /  -11.4 °C 1017.8 in /  34462.7 hPa West 1.6 mph /  2.6 km/h 12.9 mph /  20.8 km/h 86 % 0.0 in /  0 mm
11:37 13.7 °F /  -10.2 °C 11.0 °F /  -11.7 °C 1017.8 in /  34462.7 hPa WSW 11.3 mph /  18.2 km/h 16.1 mph /  25.9 km/h 84 % 0.0 in /  0 mm
11:42 13.7 °F /  -10.2 °C 11.4 °F /  -11.4 °C 1017.8 in /  34462.7 hPa West 1.6 mph /  2.6 km/h 16.1 mph /  25.9 km/h 86 % 0.0 in /  0 mm
11:52 13.7 °F /  -10.2 °C 10.9 °F /  -11.7 °C 1017.8 in /  34462.7 hPa West 4.8 mph /  7.7 km/h 16.1 mph /  25.9 km/h 83 % 0.0 in /  0 mm
12:02 13.7 °F /  -10.2 °C 10.3 °F /  -12.1 °C 1017.8 in /  34462.7 hPa West 12.9 mph /  20.8 km/h 16.1 mph /  25.9 km/h 80 % 0.0 in /  0 mm
12:12 13.9 °F /  -10.1 °C 10.9 °F /  -11.7 °C 1018.2 in /  34476.3 hPa West 4.8 mph /  7.7 km/h 19.3 mph /  31.1 km/h 82 % 0.0 in /  0 mm
12:17 13.9 °F /  -10.1 °C 10.7 °F /  -11.8 °C 1018.2 in /  34476.3 hPa West 8.0 mph /  12.9 km/h 19.3 mph /  31.1 km/h 81 % 0.0 in /  0 mm
12:22 13.9 °F /  -10.1 °C 10.7 °F /  -11.8 °C 1018.2 in /  34476.3 hPa West 4.8 mph /  7.7 km/h 19.3 mph /  31.1 km/h 81 % 0.0 in /  0 mm
12:32 14.2 °F /  -9.9 °C 10.6 °F /  -11.9 °C 1018.2 in /  34476.3 hPa West 6.4 mph /  10.3 km/h 14.5 mph /  23.3 km/h 79 % 0.0 in /  0 mm
12:42 14.2 °F /  -9.9 °C 10.6 °F /  -11.9 °C 1018.2 in /  34476.3 hPa SW 9.7 mph /  15.6 km/h 19.3 mph /  31.1 km/h 79 % 0.0 in /  0 mm
12:47 14.3 °F /  -9.8 °C 10.7 °F /  -11.8 °C 1018.2 in /  34476.3 hPa SSW 9.7 mph /  15.6 km/h 19.3 mph /  31.1 km/h 79 % 0.0 in /  0 mm
12:52 14.3 °F /  -9.8 °C 11.1 °F /  -11.6 °C 1018.2 in /  34476.3 hPa SW 12.9 mph /  20.8 km/h 19.3 mph /  31.1 km/h 81 % 0.0 in /  0 mm
13:02 14.4 °F /  -9.8 °C 11.0 °F /  -11.7 °C 1017.8 in /  34462.7 hPa SSW 8.0 mph /  12.9 km/h 16.1 mph /  25.9 km/h 80 % 0.0 in /  0 mm
13:12 14.8 °F /  -9.6 °C 11.2 °F /  -11.6 °C 1017.8 in /  34462.7 hPa WSW 8.0 mph /  12.9 km/h 17.7 mph /  28.5 km/h 79 % 0.0 in /  0 mm
13:22 14.8 °F /  -9.6 °C 10.4 °F /  -12 °C 1017.8 in /  34462.7 hPa SW 9.7 mph /  15.6 km/h 17.7 mph /  28.5 km/h 75 % 0.0 in /  0 mm
13:32 14.9 °F /  -9.5 °C 9.7 °F /  -12.4 °C 1017.8 in /  34462.7 hPa SW 11.3 mph /  18.2 km/h 19.3 mph /  31.1 km/h 71 % 0.0 in /  0 mm
13:42 15.3 °F /  -9.3 °C 10.1 °F /  -12.2 °C 1017.8 in /  34462.7 hPa SW 9.7 mph /  15.6 km/h 22.5 mph /  36.2 km/h 71 % 0.0 in /  0 mm
13:52 15.3 °F /  -9.3 °C 9.9 °F /  -12.3 °C 1017.8 in /  34462.7 hPa West 11.3 mph /  18.2 km/h 19.3 mph /  31.1 km/h 70 % 0.0 in /  0 mm
13:57 15.3 °F /  -9.3 °C 9.6 °F /  -12.4 °C 1017.8 in /  34462.7 hPa SW 6.4 mph /  10.3 km/h 20.9 mph /  33.6 km/h 69 % 0.0 in /  0 mm
14:02 15.3 °F /  -9.3 °C 10.1 °F /  -12.2 °C 1017.8 in /  34462.7 hPa SSW 6.4 mph /  10.3 km/h 20.9 mph /  33.6 km/h 71 % 0.0 in /  0 mm
14:12 15.7 °F /  -9.1 °C 10.2 °F /  -12.1 °C 1017.8 in /  34462.7 hPa WSW 12.9 mph /  20.8 km/h 20.9 mph /  33.6 km/h 70 % 0.0 in /  0 mm
14:17 15.6 °F /  -9.1 °C 9.7 °F /  -12.4 °C 1017.5 in /  34452.6 hPa WSW 11.3 mph /  18.2 km/h 20.9 mph /  33.6 km/h 68 % 0.0 in /  0 mm
14:22 15.6 °F /  -9.1 °C 9.9 °F /  -12.3 °C 1017.5 in /  34452.6 hPa SW 9.7 mph /  15.6 km/h 27.4 mph /  44.1 km/h 69 % 0.0 in /  0 mm
14:32 15.8 °F /  -9 °C 9.7 °F /  -12.4 °C 1017.5 in /  34452.6 hPa SW 16.1 mph /  25.9 km/h 27.4 mph /  44.1 km/h 67 % 0.0 in /  0 mm
14:37 15.9 °F /  -8.9 °C 10.0 °F /  -12.2 °C 1017.5 in /  34452.6 hPa West 12.9 mph /  20.8 km/h 19.3 mph /  31.1 km/h 68 % 0.0 in /  0 mm
14:47 15.9 °F /  -8.9 °C 10.2 °F /  -12.1 °C 1017.5 in /  34452.6 hPa SW 9.7 mph /  15.6 km/h 24.1 mph /  38.8 km/h 69 % 0.0 in /  0 mm
14:52 16.0 °F /  -8.9 °C 9.9 °F /  -12.3 °C 1017.5 in /  34452.6 hPa SW 11.3 mph /  18.2 km/h 24.1 mph /  38.8 km/h 67 % 0.0 in /  0 mm
14:57 15.9 °F /  -8.9 °C 10.0 °F /  -12.2 °C 1017.2 in /  34442.4 hPa WSW 11.3 mph /  18.2 km/h 22.5 mph /  36.2 km/h 68 % 0.0 in /  0 mm
15:02 15.9 °F /  -8.9 °C 10.0 °F /  -12.2 °C 1017.2 in /  34442.4 hPa West 4.8 mph /  7.7 km/h 22.5 mph /  36.2 km/h 68 % 0.0 in /  0 mm
15:07 16.1 °F /  -8.8 °C 10.2 °F /  -12.1 °C 1017.2 in /  34442.4 hPa WSW 8.0 mph /  12.9 km/h 22.5 mph /  36.2 km/h 68 % 0.0 in /  0 mm
15:17 16.3 °F /  -8.7 °C 10.4 °F /  -12 °C 1017.2 in /  34442.4 hPa SW 11.3 mph /  18.2 km/h 19.3 mph /  31.1 km/h 68 % 0.0 in /  0 mm
15:22 16.3 °F /  -8.7 °C 10.2 °F /  -12.1 °C 1017.2 in /  34442.4 hPa SW 9.7 mph /  15.6 km/h 27.4 mph /  44.1 km/h 67 % 0.0 in /  0 mm
15:27 16.3 °F /  -8.7 °C 10.4 °F /  -12 °C 1017.2 in /  34442.4 hPa WSW 11.3 mph /  18.2 km/h 27.4 mph /  44.1 km/h 68 % 0.0 in /  0 mm
15:32 16.2 °F /  -8.8 °C 10.3 °F /  -12.1 °C 1017.2 in /  34442.4 hPa SW 9.7 mph /  15.6 km/h 27.4 mph /  44.1 km/h 68 % 0.0 in /  0 mm
15:37 16.2 °F /  -8.8 °C 10.5 °F /  -11.9 °C 1017.2 in /  34442.4 hPa SSW 8.0 mph /  12.9 km/h 24.1 mph /  38.8 km/h 69 % 0.0 in /  0 mm
15:42 16.1 °F /  -8.8 °C 10.6 °F /  -11.9 °C 1017.2 in /  34442.4 hPa WSW 6.4 mph /  10.3 km/h 20.9 mph /  33.6 km/h 70 % 0.0 in /  0 mm
15:47 16.0 °F /  -8.9 °C 10.7 °F /  -11.8 °C 1017.2 in /  34442.4 hPa SW 9.7 mph /  15.6 km/h 20.9 mph /  33.6 km/h 71 % 0.0 in /  0 mm
15:52 16.0 °F /  -8.9 °C 11.0 °F /  -11.7 °C 1017.2 in /  34442.4 hPa SSW 12.9 mph /  20.8 km/h 19.3 mph /  31.1 km/h 72 % 0.0 in /  0 mm
15:57 16.0 °F /  -8.9 °C 11.0 °F /  -11.7 °C 1017.2 in /  34442.4 hPa SSW 9.7 mph /  15.6 km/h 17.7 mph /  28.5 km/h 72 % 0.0 in /  0 mm
16:02 16.0 °F /  -8.9 °C 11.2 °F /  -11.6 °C 1017.2 in /  34442.4 hPa SW 9.7 mph /  15.6 km/h 17.7 mph /  28.5 km/h 73 % 0.0 in /  0 mm
16:12 16.0 °F /  -8.9 °C 11.2 °F /  -11.6 °C 1017.2 in /  34442.4 hPa SSW 11.3 mph /  18.2 km/h 19.3 mph /  31.1 km/h 73 % 0.0 in /  0 mm
16:17 16.0 °F /  -8.9 °C 11.4 °F /  -11.4 °C 1017.2 in /  34442.4 hPa SSW 4.8 mph /  7.7 km/h 19.3 mph /  31.1 km/h 74 % 0.0 in /  0 mm
16:22 16.1 °F /  -8.8 °C 11.5 °F /  -11.4 °C 1017.2 in /  34442.4 hPa SSW 6.4 mph /  10.3 km/h 19.3 mph /  31.1 km/h 74 % 0.0 in /  0 mm
16:32 15.9 °F /  -8.9 °C 11.5 °F /  -11.4 °C 1017.2 in /  34442.4 hPa SSW 9.7 mph /  15.6 km/h 20.9 mph /  33.6 km/h 75 % 0.0 in /  0 mm
16:37 16.1 °F /  -8.8 °C 11.9 °F /  -11.2 °C 1017.2 in /  34442.4 hPa SSW 8.0 mph /  12.9 km/h 20.9 mph /  33.6 km/h 76 % 0.0 in /  0 mm
16:42 16.1 °F /  -8.8 °C 11.7 °F /  -11.3 °C 1017.2 in /  34442.4 hPa SW 8.0 mph /  12.9 km/h 16.1 mph /  25.9 km/h 75 % 0.0 in /  0 mm
16:47 15.8 °F /  -9 °C 11.6 °F /  -11.3 °C 1017.2 in /  34442.4 hPa South 8.0 mph /  12.9 km/h 17.7 mph /  28.5 km/h 76 % 0.0 in /  0 mm
16:57 15.7 °F /  -9.1 °C 11.7 °F /  -11.3 °C 1017.5 in /  34452.6 hPa SW 14.5 mph /  23.3 km/h 17.7 mph /  28.5 km/h 77 % 0.0 in /  0 mm
17:12 16.2 °F /  -8.8 °C 12.2 °F /  -11 °C 1017.2 in /  34442.4 hPa South 14.5 mph /  23.3 km/h 17.7 mph /  28.5 km/h 77 % 0.0 in /  0 mm
17:17 16.1 °F /  -8.8 °C 11.7 °F /  -11.3 °C 1017.2 in /  34442.4 hPa SSW 16.1 mph /  25.9 km/h 17.7 mph /  28.5 km/h 75 % 0.0 in /  0 mm
17:22 16.0 °F /  -8.9 °C 12.0 °F /  -11.1 °C 1017.2 in /  34442.4 hPa SW 8.0 mph /  12.9 km/h 17.7 mph /  28.5 km/h 77 % 0.0 in /  0 mm
17:27 16.1 °F /  -8.8 °C 11.9 °F /  -11.2 °C 1017.2 in /  34442.4 hPa SW 6.4 mph /  10.3 km/h 17.7 mph /  28.5 km/h 76 % 0.0 in /  0 mm
17:32 16.2 °F /  -8.8 °C 11.8 °F /  -11.2 °C 1017.2 in /  34442.4 hPa SSW 8.0 mph /  12.9 km/h 17.7 mph /  28.5 km/h 75 % 0.0 in /  0 mm
17:42 16.2 °F /  -8.8 °C 12.0 °F /  -11.1 °C 1017.2 in /  34442.4 hPa SSW 6.4 mph /  10.3 km/h 17.7 mph /  28.5 km/h 76 % 0.0 in /  0 mm
17:52 16.3 °F /  -8.7 °C 12.1 °F /  -11.1 °C 1017.2 in /  34442.4 hPa Calm   14.5 mph /  23.3 km/h 76 % 0.0 in /  0 mm
17:57 16.3 °F /  -8.7 °C 12.1 °F /  -11.1 °C 1017.2 in /  34442.4 hPa SW 11.3 mph /  18.2 km/h 14.5 mph /  23.3 km/h 76 % 0.0 in /  0 mm
18:02 16.2 °F /  -8.8 °C 12.0 °F /  -11.1 °C 1017.2 in /  34442.4 hPa SW 6.4 mph /  10.3 km/h 14.5 mph /  23.3 km/h 76 % 0.0 in /  0 mm
18:07 16.1 °F /  -8.8 °C 11.9 °F /  -11.2 °C 1017.2 in /  34442.4 hPa SW 8.0 mph /  12.9 km/h 16.1 mph /  25.9 km/h 76 % 0.0 in /  0 mm
18:12 16.0 °F /  -8.9 °C 11.8 °F /  -11.2 °C 1017.2 in /  34442.4 hPa SW 6.4 mph /  10.3 km/h 16.1 mph /  25.9 km/h 76 % 0.0 in /  0 mm
18:17 15.9 °F /  -8.9 °C 11.7 °F /  -11.3 °C 1017.2 in /  34442.4 hPa SSW 8.0 mph /  12.9 km/h 16.1 mph /  25.9 km/h 76 % 0.0 in /  0 mm
18:22 15.8 °F /  -9 °C 11.8 °F /  -11.2 °C 1017.2 in /  34442.4 hPa SW 6.4 mph /  10.3 km/h 14.5 mph /  23.3 km/h 77 % 0.0 in /  0 mm
18:27 15.7 °F /  -9.1 °C 11.7 °F /  -11.3 °C 1017.2 in /  34442.4 hPa SSW 3.2 mph /  5.1 km/h 14.5 mph /  23.3 km/h 77 % 0.0 in /  0 mm
18:32 15.5 °F /  -9.2 °C 11.7 °F /  -11.3 °C 1017.2 in /  34442.4 hPa SSW 3.2 mph /  5.1 km/h 12.9 mph /  20.8 km/h 78 % 0.0 in /  0 mm
18:42 15.1 °F /  -9.4 °C 11.5 °F /  -11.4 °C 1017.5 in /  34452.6 hPa SSW 3.2 mph /  5.1 km/h 11.3 mph /  18.2 km/h 79 % 0.0 in /  0 mm
18:47 14.8 °F /  -9.6 °C 11.4 °F /  -11.4 °C 1017.5 in /  34452.6 hPa SW 1.6 mph /  2.6 km/h 11.3 mph /  18.2 km/h 80 % 0.0 in /  0 mm
18:52 14.5 °F /  -9.7 °C 11.3 °F /  -11.5 °C 1017.5 in /  34452.6 hPa SSW 3.2 mph /  5.1 km/h 11.3 mph /  18.2 km/h 81 % 0.0 in /  0 mm
18:57 14.3 °F /  -9.8 °C 11.3 °F /  -11.5 °C 1017.5 in /  34452.6 hPa South 3.2 mph /  5.1 km/h 8.0 mph /  12.9 km/h 82 % 0.0 in /  0 mm
19:02 14.1 °F /  -9.9 °C 11.3 °F /  -11.5 °C 1017.5 in /  34452.6 hPa SSW 3.2 mph /  5.1 km/h 8.0 mph /  12.9 km/h 83 % 0.0 in /  0 mm
19:07 13.9 °F /  -10.1 °C 11.1 °F /  -11.6 °C 1017.5 in /  34452.6 hPa SSW 3.2 mph /  5.1 km/h 8.0 mph /  12.9 km/h 83 % 0.0 in /  0 mm
19:12 13.7 °F /  -10.2 °C 11.0 °F /  -11.7 °C 1017.5 in /  34452.6 hPa SSW 3.2 mph /  5.1 km/h 6.4 mph /  10.3 km/h 84 % 0.0 in /  0 mm
19:17 13.4 °F /  -10.3 °C 10.9 °F /  -11.7 °C 1017.5 in /  34452.6 hPa South 1.6 mph /  2.6 km/h 6.4 mph /  10.3 km/h 85 % 0.0 in /  0 mm
19:22 13.3 °F /  -10.4 °C 10.8 °F /  -11.8 °C 1017.5 in /  34452.6 hPa SSW 1.6 mph /  2.6 km/h 4.8 mph /  7.7 km/h 85 % 0.0 in /  0 mm
19:32 13.1 °F /  -10.5 °C 10.8 °F /  -11.8 °C 1017.5 in /  34452.6 hPa SW 1.6 mph /  2.6 km/h 4.8 mph /  7.7 km/h 86 % 0.0 in /  0 mm
19:42 12.9 °F /  -10.6 °C 10.8 °F /  -11.8 °C 1017.5 in /  34452.6 hPa Calm   3.2 mph /  5.1 km/h 87 % 0.0 in /  0 mm
19:52 12.7 °F /  -10.7 °C 10.6 °F /  -11.9 °C 1017.5 in /  34452.6 hPa Calm   1.6 mph /  2.6 km/h 87 % 0.0 in /  0 mm
20:02 12.4 °F /  -10.9 °C 10.5 °F /  -11.9 °C 1017.5 in /  34452.6 hPa Calm   1.6 mph /  2.6 km/h 88 % 0.0 in /  0 mm
20:12 12.3 °F /  -10.9 °C 10.5 °F /  -11.9 °C 1017.5 in /  34452.6 hPa SSW 3.2 mph /  5.1 km/h 3.2 mph /  5.1 km/h 89 % 0.0 in /  0 mm
20:22 12.3 °F /  -10.9 °C 10.7 °F /  -11.8 °C 1017.5 in /  34452.6 hPa South 1.6 mph /  2.6 km/h 3.2 mph /  5.1 km/h 90 % 0.0 in /  0 mm
20:32 12.1 °F /  -11.1 °C 10.5 °F /  -11.9 °C 1017.5 in /  34452.6 hPa SW 3.2 mph /  5.1 km/h 3.2 mph /  5.1 km/h 90 % 0.0 in /  0 mm
20:37 12.1 °F /  -11.1 °C 10.7 °F /  -11.8 °C 1017.5 in /  34452.6 hPa SSW 1.6 mph /  2.6 km/h 3.2 mph /  5.1 km/h 91 % 0.0 in /  0 mm
20:47 12.0 °F /  -11.1 °C 10.6 °F /  -11.9 °C 1017.5 in /  34452.6 hPa SSW 1.6 mph /  2.6 km/h 3.2 mph /  5.1 km/h 91 % 0.0 in /  0 mm
20:57 11.9 °F /  -11.2 °C 10.5 °F /  -11.9 °C 1017.5 in /  34452.6 hPa Calm   3.2 mph /  5.1 km/h 91 % 0.0 in /  0 mm
21:02 11.9 °F /  -11.2 °C 10.6 °F /  -11.9 °C 1017.5 in /  34452.6 hPa Calm   3.2 mph /  5.1 km/h 92 % 0.0 in /  0 mm
21:07 11.8 °F /  -11.2 °C 10.5 °F /  -11.9 °C 1017.5 in /  34452.6 hPa Calm   1.6 mph /  2.6 km/h 92 % 0.0 in /  0 mm
21:12 11.8 °F /  -11.2 °C 10.5 °F /  -11.9 °C 1017.5 in /  34452.6 hPa Calm   1.6 mph /  2.6 km/h 92 % 0.0 in /  0 mm
21:17 11.8 °F /  -11.2 °C 10.5 °F /  -11.9 °C 1017.5 in /  34452.6 hPa Calm   1.6 mph /  2.6 km/h 92 % 0.0 in /  0 mm
21:22 11.8 °F /  -11.2 °C 10.5 °F /  -11.9 °C 1017.5 in /  34452.6 hPa SW 1.6 mph /  2.6 km/h 1.6 mph /  2.6 km/h 92 % 0.0 in /  0 mm
21:27 11.7 °F /  -11.3 °C 10.4 °F /  -12 °C 1017.5 in /  34452.6 hPa WSW 1.6 mph /  2.6 km/h 1.6 mph /  2.6 km/h 92 % 0.0 in /  0 mm
21:32 11.6 °F /  -11.3 °C 10.5 °F /  -11.9 °C 1017.5 in /  34452.6 hPa Calm   1.6 mph /  2.6 km/h 93 % 0.0 in /  0 mm
21:37 11.6 °F /  -11.3 °C 10.5 °F /  -11.9 °C 1017.5 in /  34452.6 hPa SW 1.6 mph /  2.6 km/h 3.2 mph /  5.1 km/h 93 % 0.0 in /  0 mm
21:42 11.7 °F /  -11.3 °C 10.6 °F /  -11.9 °C 1017.5 in /  34452.6 hPa South 1.6 mph /  2.6 km/h 6.4 mph /  10.3 km/h 93 % 0.0 in /  0 mm
21:47 11.7 °F /  -11.3 °C 10.6 °F /  -11.9 °C 1017.5 in /  34452.6 hPa SW 6.4 mph /  10.3 km/h 6.4 mph /  10.3 km/h 93 % 0.0 in /  0 mm
21:52 11.6 °F /  -11.3 °C 10.5 °F /  -11.9 °C 1017.5 in /  34452.6 hPa Calm   6.4 mph /  10.3 km/h 93 % 0.0 in /  0 mm
21:57 11.6 °F /  -11.3 °C 10.5 °F /  -11.9 °C 1017.5 in /  34452.6 hPa SW 1.6 mph /  2.6 km/h 6.4 mph /  10.3 km/h 93 % 0.0 in /  0 mm
22:02 11.6 °F /  -11.3 °C 10.5 °F /  -11.9 °C 1017.5 in /  34452.6 hPa Calm   6.4 mph /  10.3 km/h 93 % 0.0 in /  0 mm
22:12 11.6 °F /  -11.3 °C 10.5 °F /  -11.9 °C 1017.5 in /  34452.6 hPa Calm   3.2 mph /  5.1 km/h 93 % 0.0 in /  0 mm
22:22 11.6 °F /  -11.3 °C 10.5 °F /  -11.9 °C 1017.5 in /  34452.6 hPa Calm   3.2 mph /  5.1 km/h 93 % 0.0 in /  0 mm
22:32 11.7 °F /  -11.3 °C 10.8 °F /  -11.8 °C 1017.5 in /  34452.6 hPa South 3.2 mph /  5.1 km/h 3.2 mph /  5.1 km/h 94 % 0.0 in /  0 mm
22:42 11.7 °F /  -11.3 °C 10.6 °F /  -11.9 °C 1017.5 in /  34452.6 hPa SSW 1.6 mph /  2.6 km/h 3.2 mph /  5.1 km/h 93 % 0.0 in /  0 mm
22:47 11.7 °F /  -11.3 °C 10.8 °F /  -11.8 °C 1017.5 in /  34452.6 hPa Calm   3.2 mph /  5.1 km/h 94 % 0.0 in /  0 mm
22:52 11.7 °F /  -11.3 °C 10.8 °F /  -11.8 °C 1017.5 in /  34452.6 hPa Calm   3.2 mph /  5.1 km/h 94 % 0.0 in /  0 mm
23:02 11.7 °F /  -11.3 °C 10.8 °F /  -11.8 °C 1017.5 in /  34452.6 hPa Calm   3.2 mph /  5.1 km/h 94 % 0.0 in /  0 mm
23:07 11.6 °F /  -11.3 °C 10.5 °F /  -11.9 °C 1017.5 in /  34452.6 hPa Calm   1.6 mph /  2.6 km/h 93 % 0.0 in /  0 mm
23:12 11.5 °F /  -11.4 °C 10.6 °F /  -11.9 °C 1017.5 in /  34452.6 hPa Calm   1.6 mph /  2.6 km/h 94 % 0.0 in /  0 mm
23:17 11.4 °F /  -11.4 °C 10.3 °F /  -12.1 °C 1017.5 in /  34452.6 hPa Calm     93 % 0.0 in /  0 mm
23:22 11.3 °F /  -11.5 °C 10.4 °F /  -12 °C 1017.5 in /  34452.6 hPa Calm     94 % 0.0 in /  0 mm
23:32 11.4 °F /  -11.4 °C 10.5 °F /  -11.9 °C 1017.5 in /  34452.6 hPa Calm     94 % 0.0 in /  0 mm
23:37 11.5 °F /  -11.4 °C 10.6 °F /  -11.9 °C 1017.5 in /  34452.6 hPa Calm     94 % 0.0 in /  0 mm
23:42 11.6 °F /  -11.3 °C 10.8 °F /  -11.8 °C 1017.5 in /  34452.6 hPa Calm     95 % 0.0 in /  0 mm
23:47 11.6 °F /  -11.3 °C 10.8 °F /  -11.8 °C 1017.5 in /  34452.6 hPa Calm     95 % 0.0 in /  0 mm
23:52 11.7 °F /  -11.3 °C 10.9 °F /  -11.7 °C 1017.5 in /  34452.6 hPa Calm   1.6 mph /  2.6 km/h 95 % 0.0 in /  0 mm
23:57 11.9 °F /  -11.2 °C 11.1 °F /  -11.6 °C 1017.5 in /  34452.6 hPa SW 1.6 mph /  2.6 km/h 1.6 mph /  2.6 km/h 95 % 0.0 in /  0 mm
Meteo18
Compliments of Weather Underground - 4 mb

Script developed by  Jim McMurry - jmcmurry@mwt.net Adapted for the template by  Wim van der Kuil - Leuven-Template.eu

You find our weather info also at:

European Weather Network

Weather Underground

Equipment we use:

Weather-station
Davis Vue

Weather-program
Meteobridge

Weather-server
Raspberry PI 2 B+

Provider
1 and 1

Davis Vue

Meteobridge

Raspberry PI 2 B+

1 and 1